Rainworth, United Kingdom
Current Conditions -  °F | °C
As of 12:20 PM on Monday 26 Jan 2015 (Local Time) from EGNX Reporting Station
Broken Clouds Broken Clouds  
Wind Chill: 38°   Ceiling: 3900
Heat Index: 45°   Visibility: 6mi
Dew Point: 37°   Wind: 15mph
Humidity: 76%   Direction: 290°WNW
Pressure: 30.21"   Gusts: NA
Location:  53.12°N, 1.12°W
Report Text: EGNX 261220Z 29013KT 9999 SCT023 BKN039 07/03 Q1023
Loading
Personal Weather Stations






























Interactive Weather Map New forecast layout! Learn more

10-Day Weather Forecast

Advertisements
Track Severe Weather on mobile